sensor_id;sensor_type;location;lat;lon;timestamp;pressure;altitude;pressure_sealevel;temperature;humidity
80629;BME280;69983;42.370;-71.210;2023-11-21T00:00:22;103125.50;;;22.29;35.84
80629;BME280;69983;42.370;-71.210;2023-11-21T00:02:23;103130.54;;;22.16;35.96
80629;BME280;69983;42.370;-71.210;2023-11-21T00:04:24;103133.39;;;21.97;36.17
80629;BME280;69983;42.370;-71.210;2023-11-21T00:06:24;103135.91;;;22.27;35.91
80629;BME280;69983;42.370;-71.210;2023-11-21T00:08:25;103139.22;;;21.80;36.08
80629;BME280;69983;42.370;-71.210;2023-11-21T00:10:25;103145.50;;;22.18;35.90
80629;BME280;69983;42.370;-71.210;2023-11-21T00:12:25;103153.57;;;21.96;35.87
80629;BME280;69983;42.370;-71.210;2023-11-21T00:14:26;103154.52;;;21.55;36.36
80629;BME280;69983;42.370;-71.210;2023-11-21T00:16:28;103158.43;;;22.27;35.89
80629;BME280;69983;42.370;-71.210;2023-11-21T00:18:27;103157.64;;;21.98;35.99
80629;BME280;69983;42.370;-71.210;2023-11-21T00:20:28;103156.82;;;21.73;36.15
80629;BME280;69983;42.370;-71.210;2023-11-21T00:22:28;103162.89;;;22.34;35.10
80629;BME280;69983;42.370;-71.210;2023-11-21T00:24:29;103166.48;;;22.00;34.29
80629;BME280;69983;42.370;-71.210;2023-11-21T00:26:29;103167.79;;;22.09;34.73
80629;BME280;69983;42.370;-71.210;2023-11-21T00:28:30;103169.98;;;21.47;34.90
80629;BME280;69983;42.370;-71.210;2023-11-21T00:30:30;103172.71;;;22.00;34.87
80629;BME280;69983;42.370;-71.210;2023-11-21T00:32:30;103178.33;;;21.85;35.08
80629;BME280;69983;42.370;-71.210;2023-11-21T00:34:31;103184.97;;;21.77;35.01
80629;BME280;69983;42.370;-71.210;2023-11-21T00:36:32;103189.94;;;22.14;34.81
80629;BME280;69983;42.370;-71.210;2023-11-21T00:38:33;103192.94;;;22.11;34.87
80629;BME280;69983;42.370;-71.210;2023-11-21T00:40:34;103194.57;;;22.09;34.63
80629;BME280;69983;42.370;-71.210;2023-11-21T00:42:34;103201.00;;;22.28;34.72
80629;BME280;69983;42.370;-71.210;2023-11-21T00:44:38;103203.94;;;22.28;34.71
80629;BME280;69983;42.370;-71.210;2023-11-21T00:46:36;103208.01;;;21.92;34.54
80629;BME280;69983;42.370;-71.210;2023-11-21T00:48:36;103210.84;;;22.55;34.38
80629;BME280;69983;42.370;-71.210;2023-11-21T00:50:36;103213.32;;;22.40;34.52
80629;BME280;69983;42.370;-71.210;2023-11-21T00:52:37;103218.10;;;22.49;34.40
80629;BME280;69983;42.370;-71.210;2023-11-21T00:54:37;103220.15;;;22.19;34.44
80629;BME280;69983;42.370;-71.210;2023-11-21T00:56:37;103224.29;;;22.00;34.64
80629;BME280;69983;42.370;-71.210;2023-11-21T00:58:38;103227.97;;;22.50;34.33
80629;BME280;69983;42.370;-71.210;2023-11-21T01:00:38;103227.17;;;22.47;34.36
80629;BME280;69983;42.370;-71.210;2023-11-21T01:02:39;103227.72;;;22.07;34.45
80629;BME280;69983;42.370;-71.210;2023-11-21T01:04:39;103229.22;;;22.34;34.44
80629;BME280;69983;42.370;-71.210;2023-11-21T01:06:39;103230.84;;;22.10;34.42
80629;BME280;69983;42.370;-71.210;2023-11-21T01:08:41;103229.05;;;22.04;34.40
80629;BME280;69983;42.370;-71.210;2023-11-21T01:10:40;103230.95;;;22.14;34.53
80629;BME280;69983;42.370;-71.210;2023-11-21T01:12:41;103236.93;;;22.49;34.25
80629;BME280;69983;42.370;-71.210;2023-11-21T01:14:41;103242.67;;;22.23;34.17
80629;BME280;69983;42.370;-71.210;2023-11-21T01:16:42;103244.41;;;22.16;34.26
80629;BME280;69983;42.370;-71.210;2023-11-21T01:18:42;103245.61;;;22.62;33.96
80629;BME280;69983;42.370;-71.210;2023-11-21T01:20:42;103248.43;;;22.18;34.16
80629;BME280;69983;42.370;-71.210;2023-11-21T01:22:43;103248.14;;;22.23;34.08
80629;BME280;69983;42.370;-71.210;2023-11-21T01:24:43;103248.53;;;22.32;33.94
80629;BME280;69983;42.370;-71.210;2023-11-21T01:26:44;103247.05;;;22.69;33.75
80629;BME280;69983;42.370;-71.210;2023-11-21T01:28:44;103246.97;;;22.30;34.16
80629;BME280;69983;42.370;-71.210;2023-11-21T01:30:44;103250.29;;;22.42;33.95
80629;BME280;69983;42.370;-71.210;2023-11-21T01:32:49;103253.38;;;22.38;33.88
80629;BME280;69983;42.370;-71.210;2023-11-21T01:34:45;103257.00;;;22.39;33.79
80629;BME280;69983;42.370;-71.210;2023-11-21T01:36:46;103262.21;;;22.16;33.74
80629;BME280;69983;42.370;-71.210;2023-11-21T01:38:47;103263.52;;;22.35;33.72
80629;BME280;69983;42.370;-71.210;2023-11-21T01:40:47;103264.52;;;22.12;33.71
80629;BME280;69983;42.370;-71.210;2023-11-21T01:42:48;103267.98;;;22.31;33.74
80629;BME280;69983;42.370;-71.210;2023-11-21T01:44:48;103267.73;;;22.14;33.65
80629;BME280;69983;42.370;-71.210;2023-11-21T01:46:48;103269.42;;;22.02;33.73
80629;BME280;69983;42.370;-71.210;2023-11-21T01:48:50;103272.48;;;21.97;33.80
80629;BME280;69983;42.370;-71.210;2023-11-21T01:50:49;103278.43;;;22.21;33.48
80629;BME280;69983;42.370;-71.210;2023-11-21T01:52:49;103281.98;;;22.06;33.77
80629;BME280;69983;42.370;-71.210;2023-11-21T01:54:49;103282.96;;;22.03;33.78
80629;BME280;69983;42.370;-71.210;2023-11-21T01:56:55;103284.21;;;21.96;33.65
80629;BME280;69983;42.370;-71.210;2023-11-21T01:58:50;103279.98;;;22.01;33.56
80629;BME280;69983;42.370;-71.210;2023-11-21T02:00:51;103280.38;;;20.51;33.57
80629;BME280;69983;42.370;-71.210;2023-11-21T02:02:52;103278.24;;;20.58;32.49
80629;BME280;69983;42.370;-71.210;2023-11-21T02:04:52;103285.63;;;21.15;31.83
80629;BME280;69983;42.370;-71.210;2023-11-21T02:06:53;103289.19;;;21.01;31.72
80629;BME280;69983;42.370;-71.210;2023-11-21T02:08:53;103286.80;;;21.19;31.60
80629;BME280;69983;42.370;-71.210;2023-11-21T02:10:52;103285.37;;;22.78;31.44
80629;BME280;69983;42.370;-71.210;2023-11-21T02:12:53;103284.95;;;22.95;31.80
80629;BME280;69983;42.370;-71.210;2023-11-21T02:14:54;103282.00;;;22.60;32.26
80629;BME280;69983;42.370;-71.210;2023-11-21T02:16:55;103281.94;;;22.60;32.33
80629;BME280;69983;42.370;-71.210;2023-11-21T02:18:57;103281.04;;;22.84;32.37
80629;BME280;69983;42.370;-71.210;2023-11-21T02:20:56;103283.68;;;22.46;32.86
80629;BME280;69983;42.370;-71.210;2023-11-21T02:22:57;103286.31;;;22.42;32.69
80629;BME280;69983;42.370;-71.210;2023-11-21T02:24:56;103285.94;;;22.18;33.02
80629;BME280;69983;42.370;-71.210;2023-11-21T02:26:57;103286.84;;;22.16;33.08
80629;BME280;69983;42.370;-71.210;2023-11-21T02:28:58;103284.92;;;22.10;33.53
80629;BME280;69983;42.370;-71.210;2023-11-21T02:30:58;103287.87;;;22.47;33.05
80629;BME280;69983;42.370;-71.210;2023-11-21T02:32:59;103293.95;;;22.24;33.05
80629;BME280;69983;42.370;-71.210;2023-11-21T02:34:59;103294.35;;;22.58;33.00
80629;BME280;69983;42.370;-71.210;2023-11-21T02:37:00;103295.50;;;22.46;33.43
80629;BME280;69983;42.370;-71.210;2023-11-21T02:39:00;103300.63;;;22.55;33.38
80629;BME280;69983;42.370;-71.210;2023-11-21T02:41:01;103304.38;;;22.42;33.30
80629;BME280;69983;42.370;-71.210;2023-11-21T02:43:01;103311.87;;;22.55;33.16
80629;BME280;69983;42.370;-71.210;2023-11-21T02:45:02;103310.48;;;22.31;33.52
80629;BME280;69983;42.370;-71.210;2023-11-21T02:47:03;103311.00;;;22.86;33.21
80629;BME280;69983;42.370;-71.210;2023-11-21T02:49:04;103312.01;;;22.52;33.33
80629;BME280;69983;42.370;-71.210;2023-11-21T02:51:04;103312.59;;;22.55;33.33
80629;BME280;69983;42.370;-71.210;2023-11-21T02:53:04;103310.28;;;22.80;33.32
80629;BME280;69983;42.370;-71.210;2023-11-21T02:55:05;103308.52;;;22.46;33.17
80629;BME280;69983;42.370;-71.210;2023-11-21T02:57:06;103309.15;;;22.71;33.16
80629;BME280;69983;42.370;-71.210;2023-11-21T02:59:06;103315.71;;;22.66;33.25
80629;BME280;69983;42.370;-71.210;2023-11-21T03:01:07;103315.31;;;22.64;33.26
80629;BME280;69983;42.370;-71.210;2023-11-21T03:03:07;103318.61;;;22.59;33.05
80629;BME280;69983;42.370;-71.210;2023-11-21T03:05:08;103317.88;;;22.57;33.08
80629;BME280;69983;42.370;-71.210;2023-11-21T03:07:12;103316.47;;;22.94;32.95
80629;BME280;69983;42.370;-71.210;2023-11-21T03:09:07;103318.10;;;22.83;33.11
80629;BME280;69983;42.370;-71.210;2023-11-21T03:11:09;103318.45;;;22.84;33.11
80629;BME280;69983;42.370;-71.210;2023-11-21T03:13:08;103319.57;;;22.87;32.84
80629;BME280;69983;42.370;-71.210;2023-11-21T03:15:09;103319.17;;;22.74;33.02
80629;BME280;69983;42.370;-71.210;2023-11-21T03:17:10;103313.88;;;22.86;32.92
80629;BME280;69983;42.370;-71.210;2023-11-21T03:19:10;103316.65;;;23.27;33.03
80629;BME280;69983;42.370;-71.210;2023-11-21T03:21:11;103319.25;;;22.99;33.10
80629;BME280;69983;42.370;-71.210;2023-11-21T03:23:11;103313.97;;;22.73;33.14
80629;BME280;69983;42.370;-71.210;2023-11-21T03:25:11;103311.76;;;22.94;33.23
80629;BME280;69983;42.370;-71.210;2023-11-21T03:27:12;103308.21;;;22.70;33.20
80629;BME280;69983;42.370;-71.210;2023-11-21T03:29:13;103305.24;;;23.03;33.14
80629;BME280;69983;42.370;-71.210;2023-11-21T03:31:13;103304.18;;;22.73;33.20
80629;BME280;69983;42.370;-71.210;2023-11-21T03:33:14;103303.63;;;23.06;33.14
80629;BME280;69983;42.370;-71.210;2023-11-21T03:35:14;103311.08;;;23.15;33.06
80629;BME280;69983;42.370;-71.210;2023-11-21T03:37:14;103310.69;;;22.76;33.46
80629;BME280;69983;42.370;-71.210;2023-11-21T03:39:14;103314.94;;;23.16;33.06
80629;BME280;69983;42.370;-71.210;2023-11-21T03:41:15;103313.04;;;23.06;33.16
80629;BME280;69983;42.370;-71.210;2023-11-21T03:43:15;103315.05;;;22.82;33.17
80629;BME280;69983;42.370;-71.210;2023-11-21T03:45:15;103317.65;;;22.57;33.48
80629;BME280;69983;42.370;-71.210;2023-11-21T03:47:16;103323.51;;;23.09;33.20
80629;BME280;69983;42.370;-71.210;2023-11-21T03:49:16;103327.17;;;23.27;33.28
80629;BME280;69983;42.370;-71.210;2023-11-21T03:51:16;103327.37;;;22.93;33.37
80629;BME280;69983;42.370;-71.210;2023-11-21T03:53:17;103329.74;;;23.08;33.21
80629;BME280;69983;42.370;-71.210;2023-11-21T03:55:17;103328.49;;;22.96;33.10
80629;BME280;69983;42.370;-71.210;2023-11-21T03:57:17;103335.26;;;23.04;33.00
80629;BME280;69983;42.370;-71.210;2023-11-21T03:59:17;103338.96;;;22.86;33.20
80629;BME280;69983;42.370;-71.210;2023-11-21T04:01:21;103341.40;;;23.12;33.00
80629;BME280;69983;42.370;-71.210;2023-11-21T04:03:18;103341.24;;;22.93;33.21
80629;BME280;69983;42.370;-71.210;2023-11-21T04:05:20;103336.09;;;23.37;33.00
80629;BME280;69983;42.370;-71.210;2023-11-21T04:07:18;103332.83;;;23.07;33.07
80629;BME280;69983;42.370;-71.210;2023-11-21T04:09:19;103328.48;;;23.24;33.17
80629;BME280;69983;42.370;-71.210;2023-11-21T04:11:19;103330.03;;;23.01;33.13
80629;BME280;69983;42.370;-71.210;2023-11-21T04:13:21;103332.37;;;23.03;33.09
80629;BME280;69983;42.370;-71.210;2023-11-21T04:15:21;103338.33;;;23.46;32.88
80629;BME280;69983;42.370;-71.210;2023-11-21T04:17:21;103333.35;;;23.23;33.16
80629;BME280;69983;42.370;-71.210;2023-11-21T04:19:22;103331.61;;;23.38;33.02
80629;BME280;69983;42.370;-71.210;2023-11-21T04:21:23;103328.89;;;23.05;33.12
80629;BME280;69983;42.370;-71.210;2023-11-21T04:23:23;103323.37;;;22.94;33.25
80629;BME280;69983;42.370;-71.210;2023-11-21T04:25:24;103326.73;;;23.08;33.11
80629;BME280;69983;42.370;-71.210;2023-11-21T04:27:24;103324.95;;;23.14;33.05
80629;BME280;69983;42.370;-71.210;2023-11-21T04:29:25;103323.00;;;23.23;33.24
80629;BME280;69983;42.370;-71.210;2023-11-21T04:31:25;103328.73;;;23.37;33.33
80629;BME280;69983;42.370;-71.210;2023-11-21T04:33:25;103331.39;;;23.06;33.15
80629;BME280;69983;42.370;-71.210;2023-11-21T04:35:26;103332.79;;;22.95;33.30
80629;BME280;69983;42.370;-71.210;2023-11-21T04:37:26;103330.53;;;22.90;33.39
80629;BME280;69983;42.370;-71.210;2023-11-21T04:39:26;103329.30;;;23.37;33.37
80629;BME280;69983;42.370;-71.210;2023-11-21T04:41:26;103331.63;;;23.28;33.17
80629;BME280;69983;42.370;-71.210;2023-11-21T04:43:31;103331.63;;;22.87;33.39
80629;BME280;69983;42.370;-71.210;2023-11-21T04:45:28;103332.60;;;23.42;33.32
80629;BME280;69983;42.370;-71.210;2023-11-21T04:47:27;103334.16;;;22.83;33.46
80629;BME280;69983;42.370;-71.210;2023-11-21T04:49:28;103337.40;;;23.40;33.13
80629;BME280;69983;42.370;-71.210;2023-11-21T04:51:28;103333.63;;;23.17;33.39
80629;BME280;69983;42.370;-71.210;2023-11-21T04:53:29;103334.51;;;22.96;33.35
80629;BME280;69983;42.370;-71.210;2023-11-21T04:55:35;103338.44;;;23.20;33.37
80629;BME280;69983;42.370;-71.210;2023-11-21T04:57:30;103338.25;;;22.93;33.41
80629;BME280;69983;42.370;-71.210;2023-11-21T04:59:31;103342.01;;;22.90;33.47
80629;BME280;69983;42.370;-71.210;2023-11-21T05:01:31;103341.47;;;23.15;33.17
80629;BME280;69983;42.370;-71.210;2023-11-21T05:03:37;103343.64;;;23.01;33.32
80629;BME280;69983;42.370;-71.210;2023-11-21T05:05:31;103346.64;;;22.95;33.39
80629;BME280;69983;42.370;-71.210;2023-11-21T05:07:32;103343.71;;;23.23;33.37
80629;BME280;69983;42.370;-71.210;2023-11-21T05:09:32;103347.78;;;22.87;33.55
80629;BME280;69983;42.370;-71.210;2023-11-21T05:11:32;103350.37;;;23.52;33.40
80629;BME280;69983;42.370;-71.210;2023-11-21T05:13:34;103352.93;;;23.25;33.40
80629;BME280;69983;42.370;-71.210;2023-11-21T05:15:33;103356.35;;;23.01;33.44
80629;BME280;69983;42.370;-71.210;2023-11-21T05:17:33;103356.06;;;22.87;33.03
80629;BME280;69983;42.370;-71.210;2023-11-21T05:19:39;103358.40;;;23.36;33.03
80629;BME280;69983;42.370;-71.210;2023-11-21T05:21:35;103359.01;;;23.26;33.37
80629;BME280;69983;42.370;-71.210;2023-11-21T05:23:35;103360.74;;;23.44;33.20
80629;BME280;69983;42.370;-71.210;2023-11-21T05:25:36;103359.85;;;23.25;33.16
80629;BME280;69983;42.370;-71.210;2023-11-21T05:27:37;103358.02;;;23.17;33.23
80629;BME280;69983;42.370;-71.210;2023-11-21T05:29:37;103356.57;;;23.44;33.20
80629;BME280;69983;42.370;-71.210;2023-11-21T05:31:38;103355.53;;;23.36;33.28
80629;BME280;69983;42.370;-71.210;2023-11-21T05:33:38;103352.53;;;23.03;33.38
80629;BME280;69983;42.370;-71.210;2023-11-21T05:35:39;103349.59;;;23.31;33.39
80629;BME280;69983;42.370;-71.210;2023-11-21T05:37:40;103344.29;;;23.67;33.24
80629;BME280;69983;42.370;-71.210;2023-11-21T05:39:40;103342.52;;;22.95;33.52
80629;BME280;69983;42.370;-71.210;2023-11-21T05:41:40;103341.06;;;23.00;33.72
80629;BME280;69983;42.370;-71.210;2023-11-21T05:43:41;103339.39;;;22.91;33.58
80629;BME280;69983;42.370;-71.210;2023-11-21T05:45:41;103342.83;;;23.44;33.20
80629;BME280;69983;42.370;-71.210;2023-11-21T05:47:43;103343.53;;;23.06;33.34
80629;BME280;69983;42.370;-71.210;2023-11-21T05:49:43;103343.55;;;23.02;33.42
80629;BME280;69983;42.370;-71.210;2023-11-21T05:51:43;103340.24;;;22.98;33.49
80629;BME280;69983;42.370;-71.210;2023-11-21T05:53:44;103339.93;;;23.51;33.18
80629;BME280;69983;42.370;-71.210;2023-11-21T05:55:45;103336.09;;;23.07;33.37
80629;BME280;69983;42.370;-71.210;2023-11-21T05:57:46;103333.26;;;23.43;33.25
80629;BME280;69983;42.370;-71.210;2023-11-21T05:59:47;103336.62;;;23.67;32.89
80629;BME280;69983;42.370;-71.210;2023-11-21T06:01:47;103336.93;;;23.13;33.19
80629;BME280;69983;42.370;-71.210;2023-11-21T06:03:47;103338.14;;;23.25;33.05
80629;BME280;69983;42.370;-71.210;2023-11-21T06:05:48;103331.23;;;23.08;33.13
80629;BME280;69983;42.370;-71.210;2023-11-21T06:07:48;103331.57;;;23.10;33.08
80629;BME280;69983;42.370;-71.210;2023-11-21T06:09:49;103328.69;;;23.28;33.06
80629;BME280;69983;42.370;-71.210;2023-11-21T06:11:49;103329.01;;;23.34;32.96
80629;BME280;69983;42.370;-71.210;2023-11-21T06:13:49;103327.19;;;23.31;32.66
80629;BME280;69983;42.370;-71.210;2023-11-21T06:15:50;103322.48;;;23.79;32.33
80629;BME280;69983;42.370;-71.210;2023-11-21T06:17:51;103318.18;;;23.33;32.52
80629;BME280;69983;42.370;-71.210;2023-11-21T06:19:51;103315.71;;;23.70;32.35
80629;BME280;69983;42.370;-71.210;2023-11-21T06:21:51;103312.89;;;23.86;32.10
80629;BME280;69983;42.370;-71.210;2023-11-21T06:23:51;103316.96;;;22.77;32.04
80629;BME280;69983;42.370;-71.210;2023-11-21T06:25:52;103319.08;;;22.47;31.57
80629;BME280;69983;42.370;-71.210;2023-11-21T06:27:52;103311.15;;;22.67;30.55
80629;BME280;69983;42.370;-71.210;2023-11-21T06:29:53;103311.05;;;23.36;30.26
80629;BME280;69983;42.370;-71.210;2023-11-21T06:31:55;103306.48;;;23.19;29.89
80629;BME280;69983;42.370;-71.210;2023-11-21T06:33:54;103305.38;;;23.91;29.84
80629;BME280;69983;42.370;-71.210;2023-11-21T06:35:55;103309.32;;;24.69;30.20
80629;BME280;69983;42.370;-71.210;2023-11-21T06:37:56;103311.77;;;24.31;30.57
80629;BME280;69983;42.370;-71.210;2023-11-21T06:40:01;103317.14;;;24.46;30.93
80629;BME280;69983;42.370;-71.210;2023-11-21T06:41:56;103322.77;;;23.79;31.39
80629;BME280;69983;42.370;-71.210;2023-11-21T06:43:57;103326.38;;;24.09;31.32
80629;BME280;69983;42.370;-71.210;2023-11-21T06:45:58;103331.65;;;23.65;31.51
80629;BME280;69983;42.370;-71.210;2023-11-21T06:47:58;103332.22;;;24.01;31.39
80629;BME280;69983;42.370;-71.210;2023-11-21T06:49:59;103330.99;;;24.03;31.36
80629;BME280;69983;42.370;-71.210;2023-11-21T06:51:59;103332.86;;;23.99;31.40
80629;BME280;69983;42.370;-71.210;2023-11-21T06:54:00;103337.19;;;23.90;31.50
80629;BME280;69983;42.370;-71.210;2023-11-21T06:56:00;103342.33;;;23.95;31.41
80629;BME280;69983;42.370;-71.210;2023-11-21T06:58:01;103347.01;;;24.14;31.46
80629;BME280;69983;42.370;-71.210;2023-11-21T07:00:02;103347.60;;;23.91;31.46
80629;BME280;69983;42.370;-71.210;2023-11-21T07:02:02;103343.99;;;23.78;31.58
80629;BME280;69983;42.370;-71.210;2023-11-21T07:04:02;103344.72;;;23.75;31.60
80629;BME280;69983;42.370;-71.210;2023-11-21T07:06:03;103348.85;;;23.96;31.39
80629;BME280;69983;42.370;-71.210;2023-11-21T07:08:03;103351.22;;;23.78;31.57
80629;BME280;69983;42.370;-71.210;2023-11-21T07:10:05;103354.02;;;24.02;31.54
80629;BME280;69983;42.370;-71.210;2023-11-21T07:12:05;103351.41;;;23.84;31.46
80629;BME280;69983;42.370;-71.210;2023-11-21T07:14:05;103343.25;;;23.74;31.29
80629;BME280;69983;42.370;-71.210;2023-11-21T07:16:06;103335.29;;;23.79;31.47
80629;BME280;69983;42.370;-71.210;2023-11-21T07:18:06;103333.59;;;23.95;31.29
80629;BME280;69983;42.370;-71.210;2023-11-21T07:20:08;103331.06;;;23.81;31.41
80629;BME280;69983;42.370;-71.210;2023-11-21T07:22:08;103330.46;;;23.99;31.47
80629;BME280;69983;42.370;-71.210;2023-11-21T07:24:09;103337.15;;;24.05;31.45
80629;BME280;69983;42.370;-71.210;2023-11-21T07:26:09;103339.75;;;23.62;31.62
80629;BME280;69983;42.370;-71.210;2023-11-21T07:28:10;103338.60;;;23.43;31.83
80629;BME280;69983;42.370;-71.210;2023-11-21T07:30:13;103337.27;;;22.96;32.38
80629;BME280;69983;42.370;-71.210;2023-11-21T07:32:12;103331.61;;;23.04;32.24
80629;BME280;69983;42.370;-71.210;2023-11-21T07:34:12;103328.78;;;23.15;32.34
80629;BME280;69983;42.370;-71.210;2023-11-21T07:36:12;103333.43;;;22.89;32.37
80629;BME280;69983;42.370;-71.210;2023-11-21T07:38:12;103339.43;;;22.66;32.62
80629;BME280;69983;42.370;-71.210;2023-11-21T07:40:13;103339.54;;;22.92;32.63
80629;BME280;69983;42.370;-71.210;2023-11-21T07:42:14;103342.74;;;23.13;32.58
80629;BME280;69983;42.370;-71.210;2023-11-21T07:44:15;103338.19;;;21.21;32.65
80629;BME280;69983;42.370;-71.210;2023-11-21T07:46:14;103339.72;;;20.23;33.27
80629;BME280;69983;42.370;-71.210;2023-11-21T07:48:15;103347.01;;;20.06;33.65
80629;BME280;69983;42.370;-71.210;2023-11-21T07:50:20;103353.82;;;20.18;33.58
80629;BME280;69983;42.370;-71.210;2023-11-21T07:52:15;103350.15;;;19.98;33.87
80629;BME280;69983;42.370;-71.210;2023-11-21T07:54:16;103348.84;;;21.96;33.78
80629;BME280;69983;42.370;-71.210;2023-11-21T07:56:17;103351.68;;;21.25;34.90
80629;BME280;69983;42.370;-71.210;2023-11-21T07:58:16;103353.85;;;21.27;35.21
80629;BME280;69983;42.370;-71.210;2023-11-21T08:00:17;103360.27;;;21.04;35.58
80629;BME280;69983;42.370;-71.210;2023-11-21T08:02:18;103360.72;;;20.76;35.93
80629;BME280;69983;42.370;-71.210;2023-11-21T08:04:18;103362.44;;;20.91;36.10
80629;BME280;69983;42.370;-71.210;2023-11-21T08:06:18;103358.43;;;20.66;36.09
80629;BME280;69983;42.370;-71.210;2023-11-21T08:08:19;103355.34;;;20.88;35.86
80629;BME280;69983;42.370;-71.210;2023-11-21T08:10:19;103354.62;;;20.68;36.10
80629;BME280;69983;42.370;-71.210;2023-11-21T08:12:25;103358.78;;;20.70;36.15
80629;BME280;69983;42.370;-71.210;2023-11-21T08:14:20;103359.61;;;21.18;35.84
80629;BME280;69983;42.370;-71.210;2023-11-21T08:16:20;103358.17;;;20.91;35.88
80629;BME280;69983;42.370;-71.210;2023-11-21T08:18:21;103358.99;;;20.93;36.15
80629;BME280;69983;42.370;-71.210;2023-11-21T08:20:21;103362.23;;;20.83;36.26
80629;BME280;69983;42.370;-71.210;2023-11-21T08:22:22;103365.90;;;20.92;35.88
80629;BME280;69983;42.370;-71.210;2023-11-21T08:24:22;103363.46;;;21.11;35.62
80629;BME280;69983;42.370;-71.210;2023-11-21T08:26:23;103360.90;;;21.06;35.71
80629;BME280;69983;42.370;-71.210;2023-11-21T08:28:23;103363.13;;;20.64;36.20
80629;BME280;69983;42.370;-71.210;2023-11-21T08:30:24;103365.90;;;20.63;36.22
80629;BME280;69983;42.370;-71.210;2023-11-21T08:32:25;103373.44;;;21.10;36.25
80629;BME280;69983;42.370;-71.210;2023-11-21T08:34:26;103377.83;;;20.59;36.26
80629;BME280;69983;42.370;-71.210;2023-11-21T08:36:26;103380.52;;;20.81;36.30
80629;BME280;69983;42.370;-71.210;2023-11-21T08:38:27;103379.10;;;20.46;36.42
80629;BME280;69983;42.370;-71.210;2023-11-21T08:40:27;103381.83;;;20.58;36.56
80629;BME280;69983;42.370;-71.210;2023-11-21T08:42:27;103387.66;;;21.16;36.18
80629;BME280;69983;42.370;-71.210;2023-11-21T08:44:27;103384.81;;;20.32;36.62
80629;BME280;69983;42.370;-71.210;2023-11-21T08:46:28;103383.98;;;20.62;36.56
80629;BME280;69983;42.370;-71.210;2023-11-21T08:48:28;103385.46;;;20.47;36.41
80629;BME280;69983;42.370;-71.210;2023-11-21T08:50:29;103383.07;;;20.36;36.54
80629;BME280;69983;42.370;-71.210;2023-11-21T08:52:30;103382.96;;;20.36;36.53
80629;BME280;69983;42.370;-71.210;2023-11-21T08:54:30;103388.11;;;20.62;36.82
80629;BME280;69983;42.370;-71.210;2023-11-21T08:56:31;103393.32;;;20.48;36.74
80629;BME280;69983;42.370;-71.210;2023-11-21T08:58:31;103396.61;;;20.74;36.40
80629;BME280;69983;42.370;-71.210;2023-11-21T09:00:32;103396.34;;;20.88;36.53
80629;BME280;69983;42.370;-71.210;2023-11-21T09:02:31;103394.66;;;20.79;36.33
80629;BME280;69983;42.370;-71.210;2023-11-21T09:04:32;103394.15;;;21.10;36.25
80629;BME280;69983;42.370;-71.210;2023-11-21T09:06:33;103391.73;;;20.63;36.21
80629;BME280;69983;42.370;-71.210;2023-11-21T09:08:33;103380.26;;;20.77;36.62
80629;BME280;69983;42.370;-71.210;2023-11-21T09:10:34;103374.76;;;20.38;36.82
80629;BME280;69983;42.370;-71.210;2023-11-21T09:12:35;103381.07;;;20.69;36.45
80629;BME280;69983;42.370;-71.210;2023-11-21T09:14:34;103391.72;;;21.13;36.21
80629;BME280;69983;42.370;-71.210;2023-11-21T09:16:34;103399.68;;;20.63;36.26
80629;BME280;69983;42.370;-71.210;2023-11-21T09:18:34;103393.25;;;20.84;36.39
80629;BME280;69983;42.370;-71.210;2023-11-21T09:20:34;103382.57;;;20.55;36.75
80629;BME280;69983;42.370;-71.210;2023-11-21T09:22:35;103383.98;;;20.99;36.18
80629;BME280;69983;42.370;-71.210;2023-11-21T09:24:35;103389.93;;;21.01;36.16
80629;BME280;69983;42.370;-71.210;2023-11-21T09:26:35;103393.71;;;20.87;36.63
80629;BME280;69983;42.370;-71.210;2023-11-21T09:28:35;103389.59;;;21.08;36.36
80629;BME280;69983;42.370;-71.210;2023-11-21T09:30:36;103379.43;;;20.74;36.82
80629;BME280;69983;42.370;-71.210;2023-11-21T09:32:37;103380.18;;;20.03;37.14
80629;BME280;69983;42.370;-71.210;2023-11-21T09:34:38;103380.35;;;20.66;36.98
80629;BME280;69983;42.370;-71.210;2023-11-21T09:36:37;103378.01;;;20.99;36.56
80629;BME280;69983;42.370;-71.210;2023-11-21T09:38:37;103370.96;;;20.59;37.05
80629;BME280;69983;42.370;-71.210;2023-11-21T09:40:38;103369.61;;;20.67;36.97
80629;BME280;69983;42.370;-71.210;2023-11-21T09:42:50;103369.25;;;20.47;36.96
80629;BME280;69983;42.370;-71.210;2023-11-21T09:44:46;103372.53;;;20.65;36.71
80629;BME280;69983;42.370;-71.210;2023-11-21T09:46:41;103372.52;;;20.46;37.01
80629;BME280;69983;42.370;-71.210;2023-11-21T09:48:39;103372.24;;;20.58;36.82
80629;BME280;69983;42.370;-71.210;2023-11-21T09:50:38;103372.17;;;20.80;36.83
80629;BME280;69983;42.370;-71.210;2023-11-21T09:52:45;103371.77;;;20.73;36.94
80629;BME280;69983;42.370;-71.210;2023-11-21T09:54:39;103373.05;;;20.51;37.23
80629;BME280;69983;42.370;-71.210;2023-11-21T09:56:39;103372.85;;;20.60;37.10
80629;BME280;69983;42.370;-71.210;2023-11-21T09:58:39;103375.32;;;20.38;37.08
80629;BME280;69983;42.370;-71.210;2023-11-21T10:00:41;103380.41;;;20.50;37.27
80629;BME280;69983;42.370;-71.210;2023-11-21T10:02:39;103379.32;;;20.35;37.19
80629;BME280;69983;42.370;-71.210;2023-11-21T10:04:39;103383.88;;;20.51;37.27
80629;BME280;69983;42.370;-71.210;2023-11-21T10:06:39;103385.41;;;20.37;37.46
80629;BME280;69983;42.370;-71.210;2023-11-21T10:08:39;103381.54;;;20.52;37.27
80629;BME280;69983;42.370;-71.210;2023-11-21T10:10:44;103371.75;;;20.49;37.27
80629;BME280;69983;42.370;-71.210;2023-11-21T10:12:40;103371.68;;;20.37;37.44